Terminal Aerodrome Forecast
Issued by NWS

Home | Current Version | Previous Version | Text Only | Print | Product List | Glossary On
Versions: 1 2 3 4 5 6 7 8 9 10 11 12 13 14 15 16 17 18 19 20 21 22 23 24 25 26 27 28 29 30 31 32 33
000
FTUS43 KDDC 261741
TAFGCK
TAF
KGCK 261741Z 2618/2718 07015G22KT 1SM BR OVC003
     FM262000 06014G21KT 2SM BR OVC005
     FM270000 03010KT 3SM BR OVC006
     FM270900 36006KT 1SM BR OVC003
     FM271500 02006KT P6SM FEW015=

USA.gov is the U.S. government's official web portal to all federal, state and local government web resources and services.